sensor_id;sensor_type;location;lat;lon;timestamp;P1;durP1;ratioP1;P2;durP2;ratioP2
39208;SDS011;24929;51.982;4.664;2022-10-16T00:00:19;1.45;;;0.88;;
39208;SDS011;24929;51.982;4.664;2022-10-16T00:02:44;2.35;;;1.45;;
39208;SDS011;24929;51.982;4.664;2022-10-16T00:05:10;2.10;;;1.13;;
39208;SDS011;24929;51.982;4.664;2022-10-16T00:07:35;5.00;;;0.77;;
39208;SDS011;24929;51.982;4.664;2022-10-16T00:10:00;0.80;;;0.80;;
39208;SDS011;24929;51.982;4.664;2022-10-16T00:12:25;3.75;;;1.08;;
39208;SDS011;24929;51.982;4.664;2022-10-16T00:14:51;1.60;;;1.23;;
39208;SDS011;24929;51.982;4.664;2022-10-16T00:17:16;2.53;;;1.30;;
39208;SDS011;24929;51.982;4.664;2022-10-16T00:19:42;1.67;;;1.40;;
39208;SDS011;24929;51.982;4.664;2022-10-16T00:22:07;1.92;;;1.20;;
39208;SDS011;24929;51.982;4.664;2022-10-16T00:24:32;1.23;;;0.88;;
39208;SDS011;24929;51.982;4.664;2022-10-16T00:26:58;1.23;;;1.10;;
39208;SDS011;24929;51.982;4.664;2022-10-16T00:29:23;0.75;;;0.57;;
39208;SDS011;24929;51.982;4.664;2022-10-16T00:31:48;1.05;;;0.95;;
39208;SDS011;24929;51.982;4.664;2022-10-16T00:34:14;2.63;;;0.75;;
39208;SDS011;24929;51.982;4.664;2022-10-16T00:36:39;2.00;;;0.75;;
39208;SDS011;24929;51.982;4.664;2022-10-16T00:39:04;5.55;;;1.00;;
39208;SDS011;24929;51.982;4.664;2022-10-16T00:41:30;1.77;;;0.90;;
39208;SDS011;24929;51.982;4.664;2022-10-16T00:43:57;4.90;;;1.65;;
39208;SDS011;24929;51.982;4.664;2022-10-16T00:46:39;2.80;;;1.65;;
39208;SDS011;24929;51.982;4.664;2022-10-16T00:51:38;1.95;;;1.33;;
39208;SDS011;24929;51.982;4.664;2022-10-16T00:54:26;2.92;;;1.42;;
39208;SDS011;24929;51.982;4.664;2022-10-16T00:56:55;1.25;;;1.15;;
39208;SDS011;24929;51.982;4.664;2022-10-16T00:59:28;2.75;;;1.70;;
39208;SDS011;24929;51.982;4.664;2022-10-16T01:01:56;1.52;;;1.13;;
39208;SDS011;24929;51.982;4.664;2022-10-16T01:04:23;2.88;;;1.25;;
39208;SDS011;24929;51.982;4.664;2022-10-16T01:09:40;1.00;;;0.82;;
39208;SDS011;24929;51.982;4.664;2022-10-16T01:12:33;1.60;;;1.15;;
39208;SDS011;24929;51.982;4.664;2022-10-16T01:20:27;2.17;;;1.38;;
39208;SDS011;24929;51.982;4.664;2022-10-16T01:25:49;1.45;;;1.23;;
39208;SDS011;24929;51.982;4.664;2022-10-16T01:28:19;2.05;;;1.17;;
39208;SDS011;24929;51.982;4.664;2022-10-16T01:30:49;1.05;;;0.95;;
39208;SDS011;24929;51.982;4.664;2022-10-16T01:33:22;2.50;;;1.40;;
39208;SDS011;24929;51.982;4.664;2022-10-16T01:35:54;1.83;;;1.30;;
39208;SDS011;24929;51.982;4.664;2022-10-16T01:38:36;1.17;;;1.00;;
39208;SDS011;24929;51.982;4.664;2022-10-16T01:41:46;4.78;;;1.00;;
39208;SDS011;24929;51.982;4.664;2022-10-16T01:44:19;6.60;;;1.75;;
39208;SDS011;24929;51.982;4.664;2022-10-16T01:46:50;2.15;;;1.10;;
39208;SDS011;24929;51.982;4.664;2022-10-16T01:49:17;2.88;;;1.35;;
39208;SDS011;24929;51.982;4.664;2022-10-16T01:51:45;1.83;;;1.48;;
39208;SDS011;24929;51.982;4.664;2022-10-16T01:54:14;1.67;;;1.42;;
39208;SDS011;24929;51.982;4.664;2022-10-16T01:56:43;2.13;;;1.52;;
39208;SDS011;24929;51.982;4.664;2022-10-16T01:59:12;2.97;;;1.55;;
39208;SDS011;24929;51.982;4.664;2022-10-16T02:01:40;1.48;;;1.33;;
39208;SDS011;24929;51.982;4.664;2022-10-16T02:04:14;1.65;;;1.55;;
39208;SDS011;24929;51.982;4.664;2022-10-16T02:06:43;1.65;;;1.40;;
39208;SDS011;24929;51.982;4.664;2022-10-16T02:09:09;1.25;;;1.15;;
39208;SDS011;24929;51.982;4.664;2022-10-16T02:11:35;1.77;;;1.38;;
39208;SDS011;24929;51.982;4.664;2022-10-16T02:14:01;3.08;;;1.65;;
39208;SDS011;24929;51.982;4.664;2022-10-16T02:16:40;3.83;;;1.77;;
39208;SDS011;24929;51.982;4.664;2022-10-16T02:19:07;1.67;;;1.45;;
39208;SDS011;24929;51.982;4.664;2022-10-16T02:21:41;1.67;;;1.55;;
39208;SDS011;24929;51.982;4.664;2022-10-16T02:24:19;3.92;;;1.35;;
39208;SDS011;24929;51.982;4.664;2022-10-16T02:27:03;1.52;;;1.42;;
39208;SDS011;24929;51.982;4.664;2022-10-16T02:29:36;2.47;;;1.95;;
39208;SDS011;24929;51.982;4.664;2022-10-16T02:32:10;1.95;;;1.73;;
39208;SDS011;24929;51.982;4.664;2022-10-16T02:34:37;1.83;;;1.52;;
39208;SDS011;24929;51.982;4.664;2022-10-16T02:37:04;1.90;;;1.60;;
39208;SDS011;24929;51.982;4.664;2022-10-16T02:39:31;1.77;;;1.60;;
39208;SDS011;24929;51.982;4.664;2022-10-16T02:41:57;3.83;;;1.50;;
39208;SDS011;24929;51.982;4.664;2022-10-16T02:44:23;1.48;;;1.38;;
39208;SDS011;24929;51.982;4.664;2022-10-16T02:46:48;1.58;;;1.20;;
39208;SDS011;24929;51.982;4.664;2022-10-16T02:49:13;1.60;;;1.48;;
39208;SDS011;24929;51.982;4.664;2022-10-16T02:51:39;2.40;;;1.48;;
39208;SDS011;24929;51.982;4.664;2022-10-16T02:54:04;2.13;;;1.58;;
39208;SDS011;24929;51.982;4.664;2022-10-16T02:56:29;2.65;;;1.77;;
39208;SDS011;24929;51.982;4.664;2022-10-16T02:58:55;1.35;;;1.23;;
39208;SDS011;24929;51.982;4.664;2022-10-16T03:01:21;1.98;;;1.17;;
39208;SDS011;24929;51.982;4.664;2022-10-16T03:03:47;4.55;;;1.88;;
39208;SDS011;24929;51.982;4.664;2022-10-16T03:06:13;3.35;;;1.67;;
39208;SDS011;24929;51.982;4.664;2022-10-16T03:08:38;2.60;;;1.73;;
39208;SDS011;24929;51.982;4.664;2022-10-16T03:11:04;2.38;;;1.40;;
39208;SDS011;24929;51.982;4.664;2022-10-16T03:13:29;1.13;;;0.95;;
39208;SDS011;24929;51.982;4.664;2022-10-16T03:15:55;2.63;;;1.60;;
39208;SDS011;24929;51.982;4.664;2022-10-16T03:18:20;4.50;;;1.67;;
39208;SDS011;24929;51.982;4.664;2022-10-16T03:20:46;3.40;;;1.58;;
39208;SDS011;24929;51.982;4.664;2022-10-16T03:23:11;1.40;;;1.30;;
39208;SDS011;24929;51.982;4.664;2022-10-16T03:25:36;3.67;;;1.52;;
39208;SDS011;24929;51.982;4.664;2022-10-16T03:28:02;2.72;;;1.65;;
39208;SDS011;24929;51.982;4.664;2022-10-16T03:30:28;1.20;;;1.10;;
39208;SDS011;24929;51.982;4.664;2022-10-16T03:32:53;2.30;;;1.25;;
39208;SDS011;24929;51.982;4.664;2022-10-16T03:35:19;2.55;;;1.58;;
39208;SDS011;24929;51.982;4.664;2022-10-16T03:37:49;1.85;;;1.27;;
39208;SDS011;24929;51.982;4.664;2022-10-16T03:40:15;1.65;;;1.40;;
39208;SDS011;24929;51.982;4.664;2022-10-16T03:42:42;3.58;;;2.10;;
39208;SDS011;24929;51.982;4.664;2022-10-16T03:45:08;3.83;;;1.50;;
39208;SDS011;24929;51.982;4.664;2022-10-16T03:47:34;2.13;;;1.40;;
39208;SDS011;24929;51.982;4.664;2022-10-16T03:49:59;4.75;;;1.40;;
39208;SDS011;24929;51.982;4.664;2022-10-16T03:52:25;6.10;;;1.80;;
39208;SDS011;24929;51.982;4.664;2022-10-16T03:54:50;2.53;;;1.20;;
39208;SDS011;24929;51.982;4.664;2022-10-16T03:57:16;2.20;;;1.08;;
39208;SDS011;24929;51.982;4.664;2022-10-16T03:59:41;3.30;;;1.65;;
39208;SDS011;24929;51.982;4.664;2022-10-16T04:02:06;1.17;;;1.02;;
39208;SDS011;24929;51.982;4.664;2022-10-16T04:04:32;2.55;;;1.25;;
39208;SDS011;24929;51.982;4.664;2022-10-16T04:06:57;1.90;;;1.35;;
39208;SDS011;24929;51.982;4.664;2022-10-16T04:09:22;1.23;;;1.13;;
39208;SDS011;24929;51.982;4.664;2022-10-16T04:11:48;3.58;;;1.45;;
39208;SDS011;24929;51.982;4.664;2022-10-16T04:14:13;2.50;;;1.17;;
39208;SDS011;24929;51.982;4.664;2022-10-16T04:16:39;2.00;;;1.33;;
39208;SDS011;24929;51.982;4.664;2022-10-16T04:19:04;1.13;;;1.00;;
39208;SDS011;24929;51.982;4.664;2022-10-16T04:21:29;4.72;;;1.38;;
39208;SDS011;24929;51.982;4.664;2022-10-16T04:23:55;1.25;;;1.00;;
39208;SDS011;24929;51.982;4.664;2022-10-16T04:26:20;2.47;;;1.08;;
39208;SDS011;24929;51.982;4.664;2022-10-16T04:28:45;3.55;;;1.20;;
39208;SDS011;24929;51.982;4.664;2022-10-16T04:31:11;6.03;;;1.27;;
39208;SDS011;24929;51.982;4.664;2022-10-16T04:33:36;1.35;;;1.08;;
39208;SDS011;24929;51.982;4.664;2022-10-16T04:36:02;1.13;;;1.02;;
39208;SDS011;24929;51.982;4.664;2022-10-16T04:38:28;0.98;;;0.90;;
39208;SDS011;24929;51.982;4.664;2022-10-16T04:40:54;1.38;;;0.95;;
39208;SDS011;24929;51.982;4.664;2022-10-16T04:43:20;2.70;;;1.10;;
39208;SDS011;24929;51.982;4.664;2022-10-16T04:45:46;1.73;;;1.05;;
39208;SDS011;24929;51.982;4.664;2022-10-16T04:48:11;1.65;;;1.40;;
39208;SDS011;24929;51.982;4.664;2022-10-16T04:50:36;1.67;;;1.17;;
39208;SDS011;24929;51.982;4.664;2022-10-16T04:53:01;2.65;;;1.33;;
39208;SDS011;24929;51.982;4.664;2022-10-16T04:55:27;2.70;;;1.20;;
39208;SDS011;24929;51.982;4.664;2022-10-16T04:57:52;3.38;;;1.67;;
39208;SDS011;24929;51.982;4.664;2022-10-16T05:00:18;2.60;;;1.13;;
39208;SDS011;24929;51.982;4.664;2022-10-16T05:02:43;2.80;;;1.50;;
39208;SDS011;24929;51.982;4.664;2022-10-16T05:05:09;1.30;;;1.20;;
39208;SDS011;24929;51.982;4.664;2022-10-16T05:07:34;2.28;;;1.35;;
39208;SDS011;24929;51.982;4.664;2022-10-16T05:10:00;1.30;;;1.05;;
39208;SDS011;24929;51.982;4.664;2022-10-16T05:12:25;4.32;;;1.60;;
39208;SDS011;24929;51.982;4.664;2022-10-16T05:14:51;1.95;;;1.00;;
39208;SDS011;24929;51.982;4.664;2022-10-16T05:17:16;1.17;;;1.08;;
39208;SDS011;24929;51.982;4.664;2022-10-16T05:19:41;0.95;;;0.80;;
39208;SDS011;24929;51.982;4.664;2022-10-16T05:22:07;1.20;;;1.10;;
39208;SDS011;24929;51.982;4.664;2022-10-16T05:24:32;6.40;;;1.40;;
39208;SDS011;24929;51.982;4.664;2022-10-16T05:26:58;1.77;;;0.98;;
39208;SDS011;24929;51.982;4.664;2022-10-16T05:29:23;2.83;;;1.70;;
39208;SDS011;24929;51.982;4.664;2022-10-16T05:31:52;2.03;;;1.40;;
39208;SDS011;24929;51.982;4.664;2022-10-16T05:34:18;2.17;;;1.25;;
39208;SDS011;24929;51.982;4.664;2022-10-16T05:36:44;2.53;;;1.20;;
39208;SDS011;24929;51.982;4.664;2022-10-16T05:39:10;1.52;;;1.40;;
39208;SDS011;24929;51.982;4.664;2022-10-16T05:41:36;0.93;;;0.93;;
39208;SDS011;24929;51.982;4.664;2022-10-16T05:44:05;1.65;;;1.17;;
39208;SDS011;24929;51.982;4.664;2022-10-16T05:46:31;2.10;;;1.20;;
39208;SDS011;24929;51.982;4.664;2022-10-16T05:48:57;1.50;;;1.00;;
39208;SDS011;24929;51.982;4.664;2022-10-16T05:51:22;5.95;;;1.73;;
39208;SDS011;24929;51.982;4.664;2022-10-16T05:53:47;3.20;;;1.42;;
39208;SDS011;24929;51.982;4.664;2022-10-16T05:56:13;6.22;;;1.67;;
39208;SDS011;24929;51.982;4.664;2022-10-16T05:58:38;1.42;;;1.02;;
39208;SDS011;24929;51.982;4.664;2022-10-16T06:01:12;1.52;;;1.23;;
39208;SDS011;24929;51.982;4.664;2022-10-16T06:03:39;0.77;;;0.77;;
39208;SDS011;24929;51.982;4.664;2022-10-16T06:06:09;3.58;;;1.10;;
39208;SDS011;24929;51.982;4.664;2022-10-16T06:08:36;5.57;;;1.35;;
39208;SDS011;24929;51.982;4.664;2022-10-16T06:11:02;2.20;;;1.27;;
39208;SDS011;24929;51.982;4.664;2022-10-16T06:13:29;2.05;;;1.27;;
39208;SDS011;24929;51.982;4.664;2022-10-16T06:15:56;6.35;;;1.38;;
39208;SDS011;24929;51.982;4.664;2022-10-16T06:18:22;4.40;;;1.15;;
39208;SDS011;24929;51.982;4.664;2022-10-16T06:20:48;4.68;;;0.85;;
39208;SDS011;24929;51.982;4.664;2022-10-16T06:23:13;2.17;;;1.05;;
39208;SDS011;24929;51.982;4.664;2022-10-16T06:25:39;6.13;;;1.65;;
39208;SDS011;24929;51.982;4.664;2022-10-16T06:28:04;2.58;;;0.88;;
39208;SDS011;24929;51.982;4.664;2022-10-16T06:33:51;3.15;;;1.00;;
39208;SDS011;24929;51.982;4.664;2022-10-16T06:36:17;2.58;;;0.70;;
39208;SDS011;24929;51.982;4.664;2022-10-16T06:38:43;0.98;;;0.95;;
39208;SDS011;24929;51.982;4.664;2022-10-16T06:41:11;1.83;;;0.65;;
39208;SDS011;24929;51.982;4.664;2022-10-16T06:43:38;0.90;;;0.63;;
39208;SDS011;24929;51.982;4.664;2022-10-16T06:46:05;4.60;;;0.65;;
39208;SDS011;24929;51.982;4.664;2022-10-16T06:48:33;3.53;;;0.98;;
39208;SDS011;24929;51.982;4.664;2022-10-16T06:51:03;1.30;;;0.85;;
39208;SDS011;24929;51.982;4.664;2022-10-16T06:53:30;1.90;;;0.70;;
39208;SDS011;24929;51.982;4.664;2022-10-16T06:55:57;3.30;;;1.48;;
39208;SDS011;24929;51.982;4.664;2022-10-16T06:58:22;1.90;;;1.05;;
39208;SDS011;24929;51.982;4.664;2022-10-16T07:00:48;1.08;;;0.80;;
39208;SDS011;24929;51.982;4.664;2022-10-16T07:03:14;3.60;;;1.35;;
39208;SDS011;24929;51.982;4.664;2022-10-16T07:05:42;3.88;;;0.70;;
39208;SDS011;24929;51.982;4.664;2022-10-16T07:08:08;5.28;;;1.23;;
39208;SDS011;24929;51.982;4.664;2022-10-16T07:10:34;4.00;;;1.15;;
39208;SDS011;24929;51.982;4.664;2022-10-16T07:13:00;7.50;;;1.55;;
39208;SDS011;24929;51.982;4.664;2022-10-16T07:15:26;1.70;;;0.65;;
39208;SDS011;24929;51.982;4.664;2022-10-16T07:17:52;2.53;;;1.13;;
39208;SDS011;24929;51.982;4.664;2022-10-16T07:20:17;2.85;;;1.15;;
39208;SDS011;24929;51.982;4.664;2022-10-16T07:22:43;3.42;;;0.95;;
39208;SDS011;24929;51.982;4.664;2022-10-16T07:25:09;3.13;;;1.13;;
39208;SDS011;24929;51.982;4.664;2022-10-16T07:27:34;2.78;;;1.15;;
39208;SDS011;24929;51.982;4.664;2022-10-16T07:30:00;6.53;;;1.40;;
39208;SDS011;24929;51.982;4.664;2022-10-16T07:32:26;4.00;;;1.17;;
39208;SDS011;24929;51.982;4.664;2022-10-16T07:34:52;2.70;;;1.60;;
39208;SDS011;24929;51.982;4.664;2022-10-16T07:37:17;5.47;;;1.70;;
39208;SDS011;24929;51.982;4.664;2022-10-16T07:39:43;2.70;;;1.25;;
39208;SDS011;24929;51.982;4.664;2022-10-16T07:42:08;1.27;;;1.10;;
39208;SDS011;24929;51.982;4.664;2022-10-16T07:44:34;5.82;;;1.45;;
39208;SDS011;24929;51.982;4.664;2022-10-16T07:46:59;5.05;;;1.20;;
39208;SDS011;24929;51.982;4.664;2022-10-16T07:49:24;4.20;;;1.50;;
39208;SDS011;24929;51.982;4.664;2022-10-16T07:51:50;1.35;;;0.88;;
39208;SDS011;24929;51.982;4.664;2022-10-16T07:54:15;3.78;;;1.08;;
39208;SDS011;24929;51.982;4.664;2022-10-16T07:56:41;0.82;;;0.82;;
39208;SDS011;24929;51.982;4.664;2022-10-16T07:59:06;2.35;;;1.35;;
39208;SDS011;24929;51.982;4.664;2022-10-16T08:01:31;3.83;;;1.27;;
39208;SDS011;24929;51.982;4.664;2022-10-16T08:03:57;4.05;;;1.00;;
39208;SDS011;24929;51.982;4.664;2022-10-16T08:06:22;0.68;;;0.68;;
39208;SDS011;24929;51.982;4.664;2022-10-16T08:08:48;1.42;;;0.82;;
39208;SDS011;24929;51.982;4.664;2022-10-16T08:11:14;3.20;;;1.48;;
39208;SDS011;24929;51.982;4.664;2022-10-16T08:13:40;7.53;;;1.80;;
39208;SDS011;24929;51.982;4.664;2022-10-16T08:16:06;2.72;;;0.93;;
39208;SDS011;24929;51.982;4.664;2022-10-16T08:18:35;2.25;;;1.15;;
39208;SDS011;24929;51.982;4.664;2022-10-16T08:21:02;6.57;;;1.30;;
39208;SDS011;24929;51.982;4.664;2022-10-16T08:23:29;1.38;;;0.95;;
39208;SDS011;24929;51.982;4.664;2022-10-16T08:25:55;2.05;;;1.10;;
39208;SDS011;24929;51.982;4.664;2022-10-16T08:28:21;1.52;;;0.90;;
39208;SDS011;24929;51.982;4.664;2022-10-16T08:30:47;4.55;;;1.13;;
39208;SDS011;24929;51.982;4.664;2022-10-16T08:33:12;4.07;;;1.25;;
39208;SDS011;24929;51.982;4.664;2022-10-16T08:35:38;1.95;;;1.20;;
39208;SDS011;24929;51.982;4.664;2022-10-16T08:38:04;5.40;;;0.82;;
39208;SDS011;24929;51.982;4.664;2022-10-16T08:40:30;4.65;;;1.58;;
39208;SDS011;24929;51.982;4.664;2022-10-16T08:46:04;5.05;;;1.30;;
39208;SDS011;24929;51.982;4.664;2022-10-16T08:48:54;2.25;;;1.33;;
39208;SDS011;24929;51.982;4.664;2022-10-16T08:51:28;1.42;;;0.93;;
39208;SDS011;24929;51.982;4.664;2022-10-16T08:53:57;5.00;;;1.52;;
39208;SDS011;24929;51.982;4.664;2022-10-16T08:56:24;1.13;;;0.93;;
39208;SDS011;24929;51.982;4.664;2022-10-16T08:58:51;4.57;;;0.95;;
39208;SDS011;24929;51.982;4.664;2022-10-16T09:01:17;4.45;;;1.50;;
39208;SDS011;24929;51.982;4.664;2022-10-16T09:06:50;4.60;;;1.63;;
39208;SDS011;24929;51.982;4.664;2022-10-16T09:22:47;5.38;;;1.40;;
39208;SDS011;24929;51.982;4.664;2022-10-16T09:25:14;5.63;;;1.27;;
39208;SDS011;24929;51.982;4.664;2022-10-16T09:27:43;3.95;;;1.23;;
39208;SDS011;24929;51.982;4.664;2022-10-16T09:30:14;8.30;;;2.10;;
39208;SDS011;24929;51.982;4.664;2022-10-16T09:32:43;2.38;;;1.20;;
39208;SDS011;24929;51.982;4.664;2022-10-16T09:35:13;4.82;;;1.65;;
39208;SDS011;24929;51.982;4.664;2022-10-16T09:37:43;3.88;;;1.80;;
39208;SDS011;24929;51.982;4.664;2022-10-16T09:40:12;8.73;;;1.40;;
39208;SDS011;24929;51.982;4.664;2022-10-16T09:48:32;4.68;;;1.50;;
39208;SDS011;24929;51.982;4.664;2022-10-16T09:51:28;8.65;;;1.80;;
39208;SDS011;24929;51.982;4.664;2022-10-16T09:53:59;4.40;;;1.27;;
39208;SDS011;24929;51.982;4.664;2022-10-16T09:58:58;3.72;;;1.40;;
39208;SDS011;24929;51.982;4.664;2022-10-16T10:01:35;7.95;;;1.67;;
39208;SDS011;24929;51.982;4.664;2022-10-16T10:04:03;5.53;;;1.52;;
39208;SDS011;24929;51.982;4.664;2022-10-16T10:06:31;3.55;;;1.58;;
39208;SDS011;24929;51.982;4.664;2022-10-16T10:16:51;7.63;;;1.20;;
39208;SDS011;24929;51.982;4.664;2022-10-16T10:19:19;4.85;;;1.40;;
39208;SDS011;24929;51.982;4.664;2022-10-16T10:21:47;2.53;;;1.15;;
39208;SDS011;24929;51.982;4.664;2022-10-16T10:24:14;8.77;;;2.25;;
39208;SDS011;24929;51.982;4.664;2022-10-16T10:29:39;4.38;;;1.90;;
39208;SDS011;24929;51.982;4.664;2022-10-16T10:35:13;2.92;;;1.33;;
39208;SDS011;24929;51.982;4.664;2022-10-16T10:40:45;5.82;;;1.35;;
39208;SDS011;24929;51.982;4.664;2022-10-16T10:45:47;4.65;;;1.67;;
39208;SDS011;24929;51.982;4.664;2022-10-16T10:48:20;3.55;;;1.35;;
39208;SDS011;24929;51.982;4.664;2022-10-16T10:50:49;5.80;;;1.35;;
39208;SDS011;24929;51.982;4.664;2022-10-16T10:53:42;3.28;;;1.45;;
39208;SDS011;24929;51.982;4.664;2022-10-16T11:07:05;6.43;;;1.40;;
39208;SDS011;24929;51.982;4.664;2022-10-16T11:09:46;2.13;;;1.10;;
39208;SDS011;24929;51.982;4.664;2022-10-16T11:12:17;2.13;;;1.10;;
39208;SDS011;24929;51.982;4.664;2022-10-16T11:17:31;5.85;;;1.58;;
39208;SDS011;24929;51.982;4.664;2022-10-16T11:20:18;5.75;;;1.73;;
39208;SDS011;24929;51.982;4.664;2022-10-16T11:25:36;2.97;;;0.85;;
39208;SDS011;24929;51.982;4.664;2022-10-16T11:28:11;4.68;;;0.85;;
39208;SDS011;24929;51.982;4.664;2022-10-16T11:30:46;6.70;;;1.23;;
39208;SDS011;24929;51.982;4.664;2022-10-16T11:35:44;4.78;;;1.90;;
39208;SDS011;24929;51.982;4.664;2022-10-16T11:38:23;6.60;;;1.48;;
39208;SDS011;24929;51.982;4.664;2022-10-16T11:40:56;5.75;;;1.25;;
39208;SDS011;24929;51.982;4.664;2022-10-16T11:43:32;3.57;;;1.13;;
39208;SDS011;24929;51.982;4.664;2022-10-16T11:46:11;4.28;;;1.30;;
39208;SDS011;24929;51.982;4.664;2022-10-16T11:54:05;6.82;;;1.67;;
39208;SDS011;24929;51.982;4.664;2022-10-16T11:56:41;3.17;;;1.15;;
39208;SDS011;24929;51.982;4.664;2022-10-16T12:04:43;3.78;;;0.93;;
39208;SDS011;24929;51.982;4.664;2022-10-16T12:07:19;3.83;;;1.00;;
39208;SDS011;24929;51.982;4.664;2022-10-16T12:09:48;9.50;;;1.48;;
39208;SDS011;24929;51.982;4.664;2022-10-16T12:15:03;3.17;;;1.75;;
39208;SDS011;24929;51.982;4.664;2022-10-16T12:17:45;4.97;;;1.50;;
39208;SDS011;24929;51.982;4.664;2022-10-16T12:22:36;7.38;;;2.28;;
39208;SDS011;24929;51.982;4.664;2022-10-16T12:28:06;2.78;;;1.15;;
39208;SDS011;24929;51.982;4.664;2022-10-16T12:30:41;7.03;;;2.22;;
39208;SDS011;24929;51.982;4.664;2022-10-16T12:33:25;3.60;;;1.10;;
39208;SDS011;24929;51.982;4.664;2022-10-16T12:35:53;3.75;;;1.20;;
39208;SDS011;24929;51.982;4.664;2022-10-16T12:38:26;4.45;;;1.23;;
39208;SDS011;24929;51.982;4.664;2022-10-16T12:48:39;6.47;;;1.75;;
39208;SDS011;24929;51.982;4.664;2022-10-16T12:51:21;8.13;;;2.50;;
39208;SDS011;24929;51.982;4.664;2022-10-16T12:54:34;1.73;;;1.20;;
39208;SDS011;24929;51.982;4.664;2022-10-16T12:59:30;2.30;;;0.95;;
39208;SDS011;24929;51.982;4.664;2022-10-16T13:07:42;6.68;;;1.52;;
39208;SDS011;24929;51.982;4.664;2022-10-16T13:15:58;7.55;;;1.95;;
39208;SDS011;24929;51.982;4.664;2022-10-16T13:21:07;5.22;;;2.03;;
39208;SDS011;24929;51.982;4.664;2022-10-16T13:23:48;4.50;;;1.45;;
39208;SDS011;24929;51.982;4.664;2022-10-16T13:26:24;8.63;;;1.67;;
39208;SDS011;24929;51.982;4.664;2022-10-16T13:28:58;4.90;;;1.98;;
39208;SDS011;24929;51.982;4.664;2022-10-16T13:31:25;4.40;;;1.17;;
39208;SDS011;24929;51.982;4.664;2022-10-16T13:33:51;14.27;;;1.45;;
39208;SDS011;24929;51.982;4.664;2022-10-16T13:36:21;3.78;;;2.35;;
39208;SDS011;24929;51.982;4.664;2022-10-16T13:38:48;3.17;;;1.45;;
39208;SDS011;24929;51.982;4.664;2022-10-16T13:41:24;8.50;;;2.20;;
39208;SDS011;24929;51.982;4.664;2022-10-16T13:43:50;4.10;;;1.33;;
39208;SDS011;24929;51.982;4.664;2022-10-16T13:46:19;5.68;;;1.23;;
39208;SDS011;24929;51.982;4.664;2022-10-16T13:51:24;6.57;;;1.45;;
39208;SDS011;24929;51.982;4.664;2022-10-16T13:53:51;3.65;;;1.08;;
39208;SDS011;24929;51.982;4.664;2022-10-16T13:56:18;3.85;;;1.00;;
39208;SDS011;24929;51.982;4.664;2022-10-16T13:58:46;4.20;;;1.02;;
39208;SDS011;24929;51.982;4.664;2022-10-16T14:01:45;7.20;;;1.33;;
39208;SDS011;24929;51.982;4.664;2022-10-16T14:04:08;3.58;;;0.88;;
39208;SDS011;24929;51.982;4.664;2022-10-16T14:06:36;8.32;;;2.03;;
39208;SDS011;24929;51.982;4.664;2022-10-16T14:09:07;5.97;;;1.67;;
39208;SDS011;24929;51.982;4.664;2022-10-16T14:11:48;4.63;;;2.45;;
39208;SDS011;24929;51.982;4.664;2022-10-16T14:14:16;8.80;;;2.65;;
39208;SDS011;24929;51.982;4.664;2022-10-16T14:16:43;4.63;;;2.30;;
39208;SDS011;24929;51.982;4.664;2022-10-16T14:19:21;9.95;;;2.97;;
39208;SDS011;24929;51.982;4.664;2022-10-16T14:21:50;6.55;;;3.53;;
39208;SDS011;24929;51.982;4.664;2022-10-16T14:24:27;7.47;;;2.83;;
39208;SDS011;24929;51.982;4.664;2022-10-16T14:26:56;10.63;;;5.68;;
39208;SDS011;24929;51.982;4.664;2022-10-16T14:29:22;11.45;;;7.30;;
39208;SDS011;24929;51.982;4.664;2022-10-16T14:36:59;9.65;;;6.60;;
39208;SDS011;24929;51.982;4.664;2022-10-16T14:39:39;7.55;;;5.22;;
39208;SDS011;24929;51.982;4.664;2022-10-16T14:42:11;8.35;;;3.30;;
39208;SDS011;24929;51.982;4.664;2022-10-16T14:44:39;9.00;;;5.47;;
39208;SDS011;24929;51.982;4.664;2022-10-16T14:47:09;4.57;;;2.65;;
39208;SDS011;24929;51.982;4.664;2022-10-16T14:49:38;4.10;;;2.17;;
39208;SDS011;24929;51.982;4.664;2022-10-16T14:52:12;2.83;;;1.55;;
39208;SDS011;24929;51.982;4.664;2022-10-16T14:54:38;4.60;;;2.50;;
39208;SDS011;24929;51.982;4.664;2022-10-16T14:57:04;4.65;;;1.90;;
39208;SDS011;24929;51.982;4.664;2022-10-16T14:59:34;7.72;;;1.63;;
39208;SDS011;24929;51.982;4.664;2022-10-16T15:02:05;3.13;;;1.20;;
39208;SDS011;24929;51.982;4.664;2022-10-16T15:04:43;3.17;;;1.53;;
39208;SDS011;24929;51.982;4.664;2022-10-16T15:07:08;6.05;;;2.40;;
39208;SDS011;24929;51.982;4.664;2022-10-16T15:09:34;4.90;;;1.52;;
39208;SDS011;24929;51.982;4.664;2022-10-16T15:11:59;6.38;;;1.88;;
39208;SDS011;24929;51.982;4.664;2022-10-16T15:14:25;8.45;;;2.20;;
39208;SDS011;24929;51.982;4.664;2022-10-16T15:16:50;3.20;;;1.80;;
39208;SDS011;24929;51.982;4.664;2022-10-16T15:19:15;6.40;;;1.48;;
39208;SDS011;24929;51.982;4.664;2022-10-16T15:21:41;3.22;;;1.50;;
39208;SDS011;24929;51.982;4.664;2022-10-16T15:24:13;7.07;;;2.10;;
39208;SDS011;24929;51.982;4.664;2022-10-16T15:26:39;2.08;;;1.42;;
39208;SDS011;24929;51.982;4.664;2022-10-16T15:29:05;6.82;;;1.95;;
39208;SDS011;24929;51.982;4.664;2022-10-16T15:31:30;4.47;;;2.22;;
39208;SDS011;24929;51.982;4.664;2022-10-16T15:33:56;4.82;;;1.98;;
39208;SDS011;24929;51.982;4.664;2022-10-16T15:36:33;2.30;;;1.52;;
39208;SDS011;24929;51.982;4.664;2022-10-16T15:39:02;5.18;;;2.70;;
39208;SDS011;24929;51.982;4.664;2022-10-16T15:41:28;3.55;;;2.58;;
39208;SDS011;24929;51.982;4.664;2022-10-16T15:43:53;9.18;;;2.80;;
39208;SDS011;24929;51.982;4.664;2022-10-16T15:46:19;8.55;;;2.42;;
39208;SDS011;24929;51.982;4.664;2022-10-16T15:48:46;3.03;;;1.60;;
39208;SDS011;24929;51.982;4.664;2022-10-16T15:51:12;8.07;;;2.15;;
39208;SDS011;24929;51.982;4.664;2022-10-16T15:53:40;8.15;;;1.45;;
39208;SDS011;24929;51.982;4.664;2022-10-16T15:56:07;5.53;;;1.77;;
39208;SDS011;24929;51.982;4.664;2022-10-16T15:58:33;8.02;;;1.55;;
39208;SDS011;24929;51.982;4.664;2022-10-16T16:01:00;6.13;;;1.73;;
39208;SDS011;24929;51.982;4.664;2022-10-16T16:03:27;8.00;;;3.53;;
39208;SDS011;24929;51.982;4.664;2022-10-16T16:05:53;5.20;;;2.88;;
39208;SDS011;24929;51.982;4.664;2022-10-16T16:08:18;4.22;;;2.08;;
39208;SDS011;24929;51.982;4.664;2022-10-16T16:10:44;10.13;;;2.58;;
39208;SDS011;24929;51.982;4.664;2022-10-16T16:13:09;6.05;;;2.40;;
39208;SDS011;24929;51.982;4.664;2022-10-16T16:15:38;10.30;;;2.90;;
39208;SDS011;24929;51.982;4.664;2022-10-16T16:18:03;6.32;;;3.22;;
39208;SDS011;24929;51.982;4.664;2022-10-16T16:20:30;7.60;;;2.92;;
39208;SDS011;24929;51.982;4.664;2022-10-16T16:22:56;6.80;;;2.95;;
39208;SDS011;24929;51.982;4.664;2022-10-16T16:25:21;5.65;;;2.67;;
39208;SDS011;24929;51.982;4.664;2022-10-16T16:27:47;12.23;;;2.95;;
39208;SDS011;24929;51.982;4.664;2022-10-16T16:30:13;7.43;;;3.00;;
39208;SDS011;24929;51.982;4.664;2022-10-16T16:32:38;4.05;;;2.85;;
39208;SDS011;24929;51.982;4.664;2022-10-16T16:35:04;9.23;;;3.83;;
39208;SDS011;24929;51.982;4.664;2022-10-16T16:37:29;11.07;;;5.15;;
39208;SDS011;24929;51.982;4.664;2022-10-16T16:39:55;5.28;;;3.78;;
39208;SDS011;24929;51.982;4.664;2022-10-16T16:42:23;7.25;;;4.00;;
39208;SDS011;24929;51.982;4.664;2022-10-16T16:44:52;6.75;;;2.97;;
39208;SDS011;24929;51.982;4.664;2022-10-16T16:47:18;6.82;;;3.13;;
39208;SDS011;24929;51.982;4.664;2022-10-16T16:49:44;9.65;;;3.08;;
39208;SDS011;24929;51.982;4.664;2022-10-16T16:52:11;9.88;;;5.20;;
39208;SDS011;24929;51.982;4.664;2022-10-16T16:54:36;6.93;;;2.45;;
39208;SDS011;24929;51.982;4.664;2022-10-16T16:57:05;10.70;;;1.77;;
39208;SDS011;24929;51.982;4.664;2022-10-16T16:59:30;9.13;;;2.75;;
39208;SDS011;24929;51.982;4.664;2022-10-16T17:01:58;5.20;;;2.75;;
39208;SDS011;24929;51.982;4.664;2022-10-16T17:04:24;7.20;;;3.05;;
39208;SDS011;24929;51.982;4.664;2022-10-16T17:06:50;11.45;;;3.33;;
39208;SDS011;24929;51.982;4.664;2022-10-16T17:09:18;4.78;;;2.47;;